Ajman, United Arab Emirates
Current Conditions -  °F | °C
As of 10:00 AM on Saturday 29 Nov 2014 (Local Time) from OMSJ Reporting Station
Few Clouds Few Clouds  
Wind Chill: 81°   Ceiling: Unl
Heat Index: 81°   Visibility: 6mi
Dew Point: 61°   Wind: 14mph
Humidity: 51%   Direction: 290°WNW
Pressure: 30.03"   Gusts: NA
Location:  25.42°N, 55.43°E
Report Text: OMSJ 290600Z 29012KT 9999 FEW040 27/16 Q1017
Loading
Personal Weather Stations






























Interactive Weather Map New forecast layout! Learn more

10-Day Weather Forecast

Advertisements
Track Severe Weather on mobile